Time;durP1;ratioP1;P1;durP2;ratioP2;P2;SDS_P1;SDS_P2;PMS_P1;PMS_P2;Temp;Humidity;BMP_temperature;BMP_pressure;BME280_temperature;BME280_humidity;BME280_pressure;Samples;Min_cycle;Max_cycle;Signal;HPM_P1;HPM_P2
2023/08/25 00:00:04;;;;;;;7.03;5.50;;;;;;;20.26;86.62;93575.50;513794;28;797;-44
2023/08/25 00:00:20;;;;;;;6.38;5.45;;;;;;;20.26;86.65;93567.09;513805;28;901;-43
2023/08/25 00:00:37;;;;;;;6.67;5.63;;;;;;;20.27;86.68;93574.16;513880;28;828;-44
2023/08/25 00:00:56;;;;;;;6.18;5.57;;;;;;;20.27;86.62;93580.47;513888;28;840;-43
2023/08/25 00:01:11;;;;;;;6.00;5.38;;;;;;;20.27;86.54;93577.69;513753;28;993;-43
2023/08/25 00:01:26;;;;;;;7.03;5.53;;;;;;;20.27;86.49;93577.69;513777;28;973;-43
2023/08/25 00:01:42;;;;;;;7.05;5.55;;;;;;;20.28;86.51;93573.53;512396;28;1795;-44
2023/08/25 00:01:57;;;;;;;5.90;5.30;;;;;;;20.28;86.58;93575.63;512445;28;1506;-44
2023/08/25 00:02:15;;;;;;;6.53;5.13;;;;;;;20.27;86.52;93577.69;513254;28;844;-42
2023/08/25 00:02:30;;;;;;;6.70;5.30;;;;;;;20.27;86.40;93572.06;511859;28;880;-43
2023/08/25 00:02:46;;;;;;;6.00;5.40;;;;;;;20.27;86.18;93574.16;513570;28;1535;-43
2023/08/25 00:03:01;;;;;;;5.90;5.30;;;;;;;20.26;85.93;93572.69;513745;28;1934;-44
2023/08/25 00:03:17;;;;;;;5.90;5.30;;;;;;;20.27;85.72;93574.16;513730;28;1383;-43
2023/08/25 00:03:32;;;;;;;5.60;5.10;;;;;;;20.25;85.54;93569.16;513751;28;837;-43
2023/08/25 00:03:48;;;;;;;5.43;4.93;;;;;;;20.25;85.43;93571.22;512294;28;896;-43
2023/08/25 00:04:03;;;;;;;5.70;5.20;;;;;;;20.23;85.56;93568.28;511845;28;874;-43
2023/08/25 00:04:19;;;;;;;5.60;5.00;;;;;;;20.23;85.56;93571.09;513059;28;1204;-44
2023/08/25 00:04:34;;;;;;;6.70;4.80;;;;;;;20.23;85.72;93569.03;513156;28;1680;-43
2023/08/25 00:04:49;;;;;;;6.63;4.70;;;;;;;20.21;85.75;93563.31;513323;28;860;-44
2023/08/25 00:05:05;;;;;;;4.97;4.47;;;;;;;20.21;85.76;93573.78;513767;28;880;-44
2023/08/25 00:05:21;;;;;;;5.35;4.43;;;;;;;20.20;85.84;93569.50;513849;28;833;-43
2023/08/25 00:05:37;;;;;;;5.57;4.47;;;;;;;20.13;85.79;93562.78;513731;28;891;-44
2023/08/25 00:05:55;;;;;;;5.03;4.53;;;;;;;20.19;85.66;93577.16;513628;28;1149;-44
2023/08/25 00:06:11;;;;;;;5.22;4.72;;;;;;;20.17;85.56;93570.72;513831;28;896;-43
2023/08/25 00:06:26;;;;;;;4.87;4.30;;;;;;;20.16;85.60;93560.84;513464;28;1083;-43
2023/08/25 00:06:41;;;;;;;4.32;3.92;;;;;;;20.17;85.50;93568.63;513800;28;820;-44
2023/08/25 00:06:57;;;;;;;4.63;4.20;;;;;;;20.16;85.48;93569.25;513896;28;833;-43
2023/08/25 00:07:12;;;;;;;5.63;5.10;;;;;;;20.16;85.49;93566.44;513720;28;1187;-43
2023/08/25 00:07:28;;;;;;;5.40;4.90;;;;;;;20.16;85.55;93569.97;513630;28;1028;-43
2023/08/25 00:07:43;;;;;;;5.93;4.73;;;;;;;20.15;85.62;93567.78;513807;28;844;-43
2023/08/25 00:07:58;;;;;;;7.53;5.13;;;;;;;20.16;85.69;93569.97;512908;28;1708;-42
2023/08/25 00:08:14;;;;;;;6.60;4.88;;;;;;;20.16;85.81;93572.06;513094;28;875;-44
2023/08/25 00:08:29;;;;;;;5.13;4.60;;;;;;;20.16;85.85;93566.44;513728;28;884;-44
2023/08/25 00:08:44;;;;;;;5.40;4.90;;;;;;;20.14;85.88;93560.72;513876;28;1017;-42
2023/08/25 00:09:00;;;;;;;5.55;4.95;;;;;;;20.14;86.27;93563.53;513712;28;1246;-43
2023/08/25 00:09:15;;;;;;;5.13;4.60;;;;;;;20.14;86.43;93571.94;513806;28;854;-44
2023/08/25 00:09:30;;;;;;;5.83;4.90;;;;;;;20.14;86.50;93571.94;513813;28;927;-43
2023/08/25 00:09:46;;;;;;;5.93;5.07;;;;;;;20.13;86.58;93564.84;513862;28;816;-43
2023/08/25 00:10:02;;;;;;;5.53;5.00;;;;;;;20.13;86.52;93571.19;513783;28;842;-44
2023/08/25 00:10:17;;;;;;;5.45;4.95;;;;;;;20.13;86.40;93567.66;515606;28;1059;-44
2023/08/25 00:10:34;;;;;;;5.47;4.90;;;;;;;20.13;86.39;93571.19;515667;28;875;-43
2023/08/25 00:10:50;;;;;;;5.63;4.80;;;;;;;20.12;86.25;93566.94;515706;28;1579;-43
2023/08/25 00:11:05;;;;;;;5.75;5.15;;;;;;;20.12;86.28;93566.22;515704;28;889;-44
2023/08/25 00:11:21;;;;;;;6.83;5.70;;;;;;;20.12;86.41;93571.81;515644;28;927;-43
2023/08/25 00:11:38;;;;;;;6.38;5.13;;;;;;;20.09;86.26;93567.41;515714;28;854;-43
2023/08/25 00:11:53;;;;;;;6.30;4.90;;;;;;;20.10;86.31;93568.88;515275;28;1715;-44
2023/08/25 00:12:08;;;;;;;6.55;4.90;;;;;;;20.10;86.23;93569.59;513011;28;924;-45
2023/08/25 00:12:24;;;;;;;5.17;4.67;;;;;;;20.11;86.16;93567.53;513305;28;897;-44
2023/08/25 00:12:39;;;;;;;5.75;5.03;;;;;;;20.09;86.02;93570.22;513824;28;981;-45
2023/08/25 00:12:55;;;;;;;6.57;5.43;;;;;;;20.09;85.95;93565.34;513816;28;842;-43
2023/08/25 00:13:10;;;;;;;7.37;5.30;;;;;;;20.10;86.01;93566.06;513802;28;867;-44
2023/08/25 00:13:25;;;;;;;6.43;4.85;;;;;;;20.09;85.96;93565.34;513695;28;1139;-44
2023/08/25 00:13:41;;;;;;;5.20;4.70;;;;;;;20.10;85.92;93563.25;513753;28;919;-42
2023/08/25 00:13:57;;;;;;;5.55;4.93;;;;;;;20.09;85.87;93559.75;513730;28;989;-43
2023/08/25 00:14:12;;;;;;;5.75;5.15;;;;;;;20.10;85.91;93566.06;513819;28;886;-43
2023/08/25 00:14:28;;;;;;;5.47;4.97;;;;;;;20.09;85.94;93568.16;513896;28;804;-43
2023/08/25 00:14:43;;;;;;;5.37;4.87;;;;;;;20.09;85.93;93564.63;513883;28;1037;-44
2023/08/25 00:14:58;;;;;;;5.32;4.82;;;;;;;20.09;85.91;93562.56;513755;28;1279;-43
2023/08/25 00:15:14;;;;;;;5.33;4.83;;;;;;;20.09;85.86;93565.34;513774;28;868;-43
2023/08/25 00:15:29;;;;;;;5.53;5.00;;;;;;;20.08;85.87;93563.13;513808;28;833;-43
2023/08/25 00:15:45;;;;;;;5.97;5.37;;;;;;;20.08;85.85;93563.13;513354;28;1730;-44
2023/08/25 00:16:00;;;;;;;6.33;5.67;;;;;;;19.98;85.84;93559.72;513035;28;782;-44
2023/08/25 00:16:16;;;;;;;5.88;5.28;;;;;;;20.08;85.72;93565.94;514240;28;777;-45
2023/08/25 00:16:31;;;;;;;5.33;4.83;;;;;;;20.09;85.79;93570.22;512290;28;848;-45
2023/08/25 00:16:46;;;;;;;6.00;5.00;;;;;;;20.09;85.88;93564.63;512370;28;1169;-44
2023/08/25 00:17:03;;;;;;;6.45;5.22;;;;;;;20.08;85.83;93563.88;514142;28;888;-45
2023/08/25 00:17:18;;;;;;;5.40;4.90;;;;;;;20.09;85.93;93576.56;514311;28;888;-44
2023/08/25 00:17:34;;;;;;;6.10;4.83;;;;;;;20.10;85.92;93568.88;514231;28;795;-44
2023/08/25 00:17:50;;;;;;;8.45;4.90;;;;;;;20.07;85.90;93564.50;514119;28;1103;-44
2023/08/25 00:18:05;;;;;;;7.22;4.68;;;;;;;20.08;86.25;93568.75;512324;28;848;-46
2023/08/25 00:18:21;;;;;;;5.33;4.70;;;;;;;20.08;86.24;93569.47;513313;28;844;-44
2023/08/25 00:18:36;;;;;;;5.63;4.97;;;;;;;20.08;86.30;93572.28;513250;28;1707;-45
2023/08/25 00:18:52;;;;;;;5.30;4.80;;;;;;;20.08;86.48;93568.75;514266;28;843;-44
2023/08/25 00:19:07;;;;;;;5.17;4.67;;;;;;;20.08;86.42;93568.75;512504;28;828;-44
2023/08/25 00:19:22;;;;;;;5.90;4.93;;;;;;;20.07;86.52;93572.91;513481;28;1013;-43
2023/08/25 00:19:38;;;;;;;6.70;5.30;;;;;;;20.06;86.58;93574.22;514278;28;836;-45
2023/08/25 00:19:53;;;;;;;7.28;5.50;;;;;;;20.04;86.63;93568.50;514223;28;873;-44
2023/08/25 00:20:12;;;;;;;6.30;5.17;;;;;;;20.02;86.68;93566.31;514320;28;796;-45
2023/08/25 00:20:28;;;;;;;6.85;5.30;;;;;;;20.01;86.80;93567.66;514256;28;954;-44
2023/08/25 00:20:44;;;;;;;8.55;5.22;;;;;;;20.01;86.75;93570.44;514186;28;947;-44
2023/08/25 00:21:00;;;;;;;6.60;4.68;;;;;;;20.01;86.88;93575.34;514236;28;1103;-44
2023/08/25 00:21:15;;;;;;;6.17;4.80;;;;;;;20.00;86.89;93569.00;514281;28;859;-45
2023/08/25 00:21:30;;;;;;;6.27;5.33;;;;;;;20.00;86.80;93568.25;514258;28;971;-43
2023/08/25 00:21:46;;;;;;;6.00;5.40;;;;;;;20.00;86.97;93574.59;513654;28;1747;-44
2023/08/25 00:22:02;;;;;;;5.83;5.20;;;;;;;20.00;86.98;93573.88;513164;28;836;-45
2023/08/25 00:22:17;;;;;;;5.55;5.03;;;;;;;20.00;86.95;93568.25;513826;28;981;-44
2023/08/25 00:22:33;;;;;;;7.45;5.05;;;;;;;20.00;86.95;93574.59;513966;28;663;-44
2023/08/25 00:22:48;;;;;;;7.03;5.00;;;;;;;20.00;86.78;93573.88;514037;28;1075;-44
2023/08/25 00:23:04;;;;;;;5.73;5.23;;;;;;;20.00;86.78;93574.59;514008;28;1978;-44
2023/08/25 00:23:19;;;;;;;5.93;5.40;;;;;;;20.01;86.87;93575.34;514142;28;829;-45
2023/08/25 00:23:34;;;;;;;5.60;5.10;;;;;;;20.01;86.79;93572.53;514121;28;947;-46
2023/08/25 00:23:50;;;;;;;5.37;4.90;;;;;;;20.02;86.84;93571.19;513897;28;1012;-44
2023/08/25 00:24:05;;;;;;;5.68;5.18;;;;;;;20.02;86.78;93571.19;514146;28;829;-44
2023/08/25 00:24:21;;;;;;;5.80;5.20;;;;;;;20.01;86.67;93567.66;513546;28;1676;-44
2023/08/25 00:24:36;;;;;;;5.53;5.03;;;;;;;20.02;86.62;93579.59;513024;28;770;-45
2023/08/25 00:24:55;;;;;;;5.30;4.80;;;;;;;20.00;86.56;93576.66;514106;28;825;-45
2023/08/25 00:25:10;;;;;;;5.13;4.60;;;;;;;19.99;86.35;93572.41;512313;28;813;-45
2023/08/25 00:25:25;;;;;;;5.30;4.80;;;;;;;19.97;86.26;93575.81;513886;28;1056;-44
2023/08/25 00:25:45;;;;;;;5.57;4.97;;;;;;;19.97;86.41;93580.69;514108;28;1119;-44
2023/08/25 00:26:00;;;;;;;5.82;4.97;;;;;;;19.94;86.38;93573.50;514238;28;970;-45
2023/08/25 00:26:16;;;;;;;5.53;4.93;;;;;;;19.92;86.36;93573.38;514168;28;868;-44
2023/08/25 00:26:32;;;;;;;5.78;4.90;;;;;;;19.91;86.25;93583.84;513546;28;867;-44
2023/08/25 00:26:47;;;;;;;6.13;5.00;;;;;;;19.90;86.32;93576.06;512349;28;1136;-44
2023/08/25 00:27:03;;;;;;;5.63;5.03;;;;;;;19.91;86.25;93577.50;514240;28;1021;-44
2023/08/25 00:27:19;;;;;;;5.50;5.00;;;;;;;19.89;86.24;93583.72;514286;28;785;-43
2023/08/25 00:27:34;;;;;;;5.30;4.80;;;;;;;19.89;86.32;93583.00;514213;28;1524;-45
2023/08/25 00:27:49;;;;;;;6.50;5.38;;;;;;;19.88;86.56;93573.13;514165;28;1560;-44
2023/08/25 00:28:05;;;;;;;7.07;5.43;;;;;;;19.88;86.70;93582.25;514229;28;876;-44
2023/08/25 00:28:20;;;;;;;6.33;5.10;;;;;;;19.88;86.89;93581.53;513545;28;1453;-44
2023/08/25 00:28:36;;;;;;;6.38;5.40;;;;;;;19.90;87.02;93584.47;512826;28;766;-44
2023/08/25 00:28:51;;;;;;;6.50;5.77;;;;;;;19.89;87.15;93588.59;512432;28;797;-43
2023/08/25 00:29:06;;;;;;;6.20;5.60;;;;;;;19.83;87.25;93572.16;514317;28;813;-44
2023/08/25 00:29:22;;;;;;;5.72;5.13;;;;;;;19.89;87.11;93580.94;514100;28;805;-45
2023/08/25 00:29:37;;;;;;;5.40;4.90;;;;;;;19.90;87.09;93581.66;514314;28;794;-45
2023/08/25 00:29:53;;;;;;;5.43;4.93;;;;;;;19.90;86.94;93581.66;514038;28;1666;-45
2023/08/25 00:30:10;;;;;;;5.45;4.95;;;;;;;19.90;86.86;93584.47;514260;28;827;-45
2023/08/25 00:30:26;;;;;;;5.18;4.68;;;;;;;19.90;86.75;93576.78;514122;28;843;-45
2023/08/25 00:30:41;;;;;;;5.50;4.90;;;;;;;19.91;86.61;93583.13;514298;28;842;-45
2023/08/25 00:30:57;;;;;;;5.60;5.00;;;;;;;19.91;86.46;93586.66;514252;28;809;-44
2023/08/25 00:31:12;;;;;;;6.35;5.18;;;;;;;19.90;86.48;93587.28;512607;28;1743;-44
2023/08/25 00:31:27;;;;;;;6.97;5.30;;;;;;;19.90;86.56;93588.00;514069;28;979;-44
2023/08/25 00:31:44;;;;;;;7.13;5.70;;;;;;;19.92;86.67;93587.41;514131;28;932;-44
2023/08/25 00:31:59;;;;;;;6.30;5.65;;;;;;;19.90;86.65;93576.06;514267;28;856;-44
2023/08/25 00:32:15;;;;;;;6.03;5.10;;;;;;;19.91;86.75;93583.84;512504;28;889;-45
2023/08/25 00:32:30;;;;;;;5.93;5.10;;;;;;;19.91;86.72;93585.91;512046;28;1678;-44
2023/08/25 00:32:45;;;;;;;6.03;4.93;;;;;;;19.91;86.73;93585.91;512074;29;789;-44
2023/08/25 00:33:01;;;;;;;6.30;5.03;;;;;;;19.83;86.70;93565.81;513802;28;1115;-44
2023/08/25 00:33:16;;;;;;;7.23;5.47;;;;;;;19.90;86.40;93590.06;514053;28;847;-43
2023/08/25 00:33:32;;;;;;;7.45;5.38;;;;;;;19.90;86.21;93584.47;514065;28;888;-45
2023/08/25 00:33:49;;;;;;;5.77;5.17;;;;;;;19.90;85.99;93590.06;514094;28;833;-44
2023/08/25 00:34:04;;;;;;;5.88;5.38;;;;;;;19.88;86.09;93585.06;513979;28;926;-45
2023/08/25 00:34:20;;;;;;;6.20;5.32;;;;;;;19.89;86.00;93583.00;514111;28;1087;-44
2023/08/25 00:34:35;;;;;;;6.70;5.33;;;;;;;19.89;86.12;93585.78;514173;28;1017;-45
2023/08/25 00:34:51;;;;;;;5.80;5.20;;;;;;;19.88;86.15;93585.06;514295;28;1423;-45
2023/08/25 00:35:06;;;;;;;5.63;5.00;;;;;;;19.90;85.99;93582.41;513603;28;1755;-44
2023/08/25 00:35:23;;;;;;;6.20;4.85;;;;;;;19.90;86.05;93590.06;513385;28;856;-44
2023/08/25 00:35:41;;;;;;;5.32;4.80;;;;;;;19.90;85.95;93585.19;514252;28;931;-44
2023/08/25 00:35:56;;;;;;;5.68;5.18;;;;;;;19.91;86.03;93583.84;514284;28;901;-45
2023/08/25 00:36:11;;;;;;;5.83;5.23;;;;;;;19.91;85.96;93581.03;514176;28;935;-44
2023/08/25 00:36:27;;;;;;;5.43;4.93;;;;;;;19.91;85.87;93581.03;514277;28;847;-44
2023/08/25 00:36:42;;;;;;;5.30;4.80;;;;;;;19.89;85.74;93580.19;514195;28;859;-44
2023/08/25 00:36:59;;;;;;;5.93;5.33;;;;;;;19.88;85.78;93579.44;513471;28;1358;-44
2023/08/25 00:37:14;;;;;;;6.18;5.57;;;;;;;19.88;85.56;93573.13;514092;28;842;-44
2023/08/25 00:37:29;;;;;;;5.87;5.30;;;;;;;19.88;85.58;93585.06;514197;28;1175;-44
2023/08/25 00:37:45;;;;;;;5.77;5.17;;;;;;;19.88;85.32;93590.66;513603;28;1704;-45
2023/08/25 00:38:00;;;;;;;5.75;5.15;;;;;;;19.86;85.46;93584.94;512297;28;1560;-45
2023/08/25 00:38:16;;;;;;;5.90;5.37;;;;;;;19.86;85.24;93584.22;513394;28;879;-44
2023/08/25 00:38:31;;;;;;;5.68;5.18;;;;;;;19.87;85.17;93592.00;514202;28;798;-44
2023/08/25 00:38:46;;;;;;;5.80;5.30;;;;;;;19.86;85.16;93584.22;513881;28;765;-45
2023/08/25 00:39:02;;;;;;;6.00;5.50;;;;;;;19.87;85.26;93588.47;512196;28;870;-44
2023/08/25 00:39:17;;;;;;;5.70;5.20;;;;;;;19.86;85.32;93587.72;512891;28;785;-44
2023/08/25 00:39:32;;;;;;;5.87;5.20;;;;;;;19.87;85.33;93591.28;514179;28;1214;-44
2023/08/25 00:39:48;;;;;;;5.47;4.97;;;;;;;19.87;85.35;93588.47;514225;28;805;-45
2023/08/25 00:40:04;;;;;;;5.10;4.70;;;;;;;19.86;85.31;93581.41;514224;28;805;-45
2023/08/25 00:40:19;;;;;;;5.32;4.82;;;;;;;19.85;85.26;93582.75;514126;28;955;-45
2023/08/25 00:40:35;;;;;;;5.20;4.70;;;;;;;19.86;85.08;93581.41;513642;28;1727;-45
2023/08/25 00:40:51;;;;;;;5.20;4.68;;;;;;;19.84;85.08;93589.69;512864;28;1016;-44
2023/08/25 00:41:06;;;;;;;5.90;5.13;;;;;;;19.84;85.04;93586.91;514205;28;927;-44
2023/08/25 00:41:22;;;;;;;7.53;5.38;;;;;;;19.84;84.96;93581.28;514124;28;892;-45
2023/08/25 00:41:38;;;;;;;6.80;5.03;;;;;;;19.82;84.94;93581.88;514324;28;865;-43
2023/08/25 00:41:54;;;;;;;5.43;4.93;;;;;;;19.75;85.05;93571.63;514149;28;1533;-45
2023/08/25 00:42:09;;;;;;;5.60;5.10;;;;;;;19.82;85.08;93586.75;514254;28;811;-44
2023/08/25 00:42:25;;;;;;;5.38;4.90;;;;;;;19.83;84.97;93582.63;513600;28;1040;-44
2023/08/25 00:42:40;;;;;;;5.03;4.53;;;;;;;19.84;85.09;93589.69;514242;28;882;-45
2023/08/25 00:42:56;;;;;;;5.47;4.88;;;;;;;19.83;85.29;93582.63;514194;28;899;-44
2023/08/25 00:43:11;;;;;;;6.07;5.47;;;;;;;19.83;85.38;93586.16;514163;28;2030;-45
2023/08/25 00:43:26;;;;;;;6.20;5.43;;;;;;;19.83;85.64;93583.38;513511;28;1534;-44
2023/08/25 00:43:42;;;;;;;6.75;5.20;;;;;;;19.83;85.52;93585.44;513324;28;807;-44
2023/08/25 00:43:57;;;;;;;5.60;4.97;;;;;;;19.83;85.46;93585.44;513956;28;1029;-45
2023/08/25 00:44:13;;;;;;;5.67;5.07;;;;;;;19.82;85.36;93587.47;514169;28;892;-44
2023/08/25 00:44:28;;;;;;;5.22;4.43;;;;;;;19.83;85.16;93591.03;514198;28;1151;-44
2023/08/25 00:44:43;;;;;;;4.87;4.40;;;;;;;19.83;84.93;93599.44;514122;28;888;-45
2023/08/25 00:44:59;;;;;;;5.50;5.00;;;;;;;19.82;84.75;93583.94;514276;28;819;-44
2023/08/25 00:45:14;;;;;;;5.95;5.00;;;;;;;19.79;84.57;93591.53;514216;28;782;-44
2023/08/25 00:45:33;;;;;;;6.37;4.80;;;;;;;19.76;84.45;93580.78;513520;28;896;-44
2023/08/25 00:45:48;;;;;;;4.80;4.40;;;;;;;19.78;84.39;93595.66;512061;29;931;-44
2023/08/25 00:46:04;;;;;;;5.03;4.53;;;;;;;19.78;84.41;93583.69;512099;28;1709;-43
2023/08/25 00:46:20;;;;;;;5.60;5.10;;;;;;;19.78;84.43;93595.66;512336;28;800;-45
2023/08/25 00:46:35;;;;;;;5.65;5.18;;;;;;;19.77;84.50;93588.59;512945;28;800;-44
2023/08/25 00:46:51;;;;;;;5.33;4.90;;;;;;;19.67;84.56;93580.28;514085;28;1119;-44
2023/08/25 00:47:06;;;;;;;5.87;4.63;;;;;;;19.77;84.68;93590.66;512733;28;836;-44
2023/08/25 00:47:24;;;;;;;6.28;4.90;;;;;;;19.75;84.84;93585.63;512061;28;829;-44
2023/08/25 00:47:40;;;;;;;5.70;5.13;;;;;;;19.76;84.97;93595.53;512857;28;1030;-44
2023/08/25 00:47:55;;;;;;;5.80;5.20;;;;;;;19.76;84.93;93592.72;511977;29;830;-44
2023/08/25 00:48:11;;;;;;;7.57;5.13;;;;;;;19.76;84.80;93591.97;510031;29;1360;-44
2023/08/25 00:48:27;;;;;;;6.87;5.00;;;;;;;19.75;84.84;93593.34;509943;29;1092;-46
2023/08/25 00:48:43;;;;;;;5.47;4.82;;;;;;;19.75;84.72;93585.63;510091;29;881;-45
2023/08/25 00:48:59;;;;;;;5.27;4.67;;;;;;;19.74;84.61;93589.78;510132;29;876;-45
2023/08/25 00:49:14;;;;;;;5.07;4.68;;;;;;;19.74;84.42;93589.06;509951;29;929;-44
2023/08/25 00:49:30;;;;;;;5.10;4.60;;;;;;;19.72;84.37;93584.06;508076;29;886;-44
2023/08/25 00:49:46;;;;;;;6.50;4.80;;;;;;;19.72;84.37;93584.06;508386;29;1603;-44
2023/08/25 00:50:03;;;;;;;6.03;4.80;;;;;;;19.71;84.52;93590.28;510618;29;1199;-44
2023/08/25 00:50:18;;;;;;;4.90;4.40;;;;;;;19.71;84.50;93587.47;512010;29;1724;-44
2023/08/25 00:50:33;;;;;;;5.80;4.57;;;;;;;19.70;84.55;93586.75;512143;28;852;-45
2023/08/25 00:50:49;;;;;;;5.93;5.00;;;;;;;19.69;84.66;93590.88;512139;29;819;-44
2023/08/25 00:51:05;;;;;;;5.90;5.30;;;;;;;19.70;84.90;93597.22;510705;29;990;-43
2023/08/25 00:51:21;;;;;;;6.07;5.43;;;;;;;19.68;85.10;93590.13;510723;29;857;-44
2023/08/25 00:51:36;;;;;;;6.40;5.25;;;;;;;19.68;85.17;93587.34;510055;29;849;-44
2023/08/25 00:51:52;;;;;;;6.17;5.03;;;;;;;19.67;85.19;93587.94;511202;29;2261;-44
2023/08/25 00:52:09;;;;;;;5.13;4.63;;;;;;;19.66;85.02;93592.81;512052;29;908;-44
2023/08/25 00:52:25;;;;;;;5.15;4.70;;;;;;;19.66;85.04;93586.50;510031;29;917;-44
2023/08/25 00:52:41;;;;;;;5.38;4.85;;;;;;;19.66;85.09;93586.50;510100;28;853;-44
2023/08/25 00:52:57;;;;;;;7.43;5.40;;;;;;;19.64;85.23;93592.69;510733;29;1104;-44
2023/08/25 00:53:12;;;;;;;7.72;5.20;;;;;;;19.65;85.05;93585.75;512077;29;849;-45
2023/08/25 00:53:28;;;;;;;5.55;4.88;;;;;;;19.64;85.06;93595.47;511590;29;1653;-46
2023/08/25 00:53:44;;;;;;;5.47;4.97;;;;;;;19.63;84.95;93588.44;510042;29;801;-45
2023/08/25 00:53:59;;;;;;;5.40;4.90;;;;;;;19.64;85.06;93589.16;509496;29;1229;-44
2023/08/25 00:54:14;;;;;;;5.82;5.28;;;;;;;19.63;85.11;93588.44;510483;29;813;-45
2023/08/25 00:54:34;;;;;;;5.87;5.17;;;;;;;19.42;85.16;93560.50;511638;28;1235;-45
2023/08/25 00:54:51;;;;;;;5.05;4.55;;;;;;;19.63;85.25;93590.50;514123;28;1750;-44
2023/08/25 00:55:07;;;;;;;5.65;5.15;;;;;;;19.61;85.39;93582.72;514048;28;967;-45
2023/08/25 00:55:23;;;;;;;5.43;4.93;;;;;;;19.61;85.47;93582.72;513941;28;829;-44
2023/08/25 00:55:38;;;;;;;5.30;4.70;;;;;;;19.61;85.62;93584.78;513965;28;1070;-43
2023/08/25 00:55:54;;;;;;;5.20;4.68;;;;;;;19.61;85.60;93593.91;513968;28;817;-44
2023/08/25 00:56:10;;;;;;;5.03;4.60;;;;;;;19.61;85.76;93585.50;513501;28;1732;-44
2023/08/25 00:56:26;;;;;;;5.43;4.93;;;;;;;19.62;85.58;93586.25;511927;29;923;-44
2023/08/25 00:56:42;;;;;;;5.53;5.03;;;;;;;19.60;85.54;93589.63;510108;29;872;-44
2023/08/25 00:56:57;;;;;;;5.70;5.20;;;;;;;19.62;85.68;93586.25;508132;29;1105;-44
2023/08/25 00:57:13;;;;;;;5.63;5.13;;;;;;;19.61;85.65;93590.38;507877;29;1216;-45
2023/08/25 00:57:28;;;;;;;5.10;4.63;;;;;;;19.61;85.87;93587.56;506728;29;885;-45
2023/08/25 00:57:44;;;;;;;5.53;4.93;;;;;;;19.59;85.95;93590.97;508115;29;770;-43
2023/08/25 00:57:59;;;;;;;6.43;5.40;;;;;;;19.60;86.16;93591.69;508101;29;778;-44
2023/08/25 00:58:16;;;;;;;5.73;5.10;;;;;;;19.57;86.53;93584.53;506440;29;846;-44
2023/08/25 00:58:32;;;;;;;5.43;4.80;;;;;;;19.60;86.76;93588.91;508637;29;1143;-43
2023/08/25 00:58:47;;;;;;;5.50;5.00;;;;;;;19.61;86.93;93590.38;510138;29;1749;-44
2023/08/25 00:59:03;;;;;;;5.45;4.95;;;;;;;19.60;86.99;93589.63;512005;29;838;-44
2023/08/25 00:59:18;;;;;;;5.45;4.93;;;;;;;19.59;87.01;93588.19;512551;28;825;-44
2023/08/25 00:59:34;;;;;;;6.17;5.37;;;;;;;19.59;86.97;93585.38;511980;28;940;-43
2023/08/25 00:59:51;;;;;;;7.05;5.85;;;;;;;19.60;86.86;93583.28;511982;29;799;-43
2023/08/25 01:00:09;;;;;;;6.13;5.53;;;;;;;19.60;86.82;93583.28;511999;29;1151;-43
2023/08/25 01:00:25;;;;;;;5.45;4.95;;;;;;;19.58;86.44;93583.16;512768;28;1088;-43
2023/08/25 01:00:43;;;;;;;5.78;5.10;;;;;;;19.58;86.30;93583.91;510064;29;907;-43
2023/08/25 01:01:01;;;;;;;6.45;5.35;;;;;;;19.57;86.41;93579.66;510041;29;950;-43
2023/08/25 01:01:18;;;;;;;5.93;5.28;;;;;;;19.58;86.23;93580.38;509903;29;997;-43
2023/08/25 01:01:33;;;;;;;5.90;5.30;;;;;;;19.56;86.49;93580.25;511779;29;1141;-43
2023/08/25 01:01:48;;;;;;;5.43;4.93;;;;;;;19.56;86.52;93580.97;512050;29;877;-44
2023/08/25 01:02:04;;;;;;;5.30;4.80;;;;;;;19.56;86.62;93580.97;511867;29;936;-43
2023/08/25 01:02:20;;;;;;;5.78;5.20;;;;;;;19.55;86.64;93582.34;511992;29;863;-43
2023/08/25 01:02:35;;;;;;;6.17;5.57;;;;;;;19.54;86.52;93580.84;513993;28;1750;-43
2023/08/25 01:02:51;;;;;;;6.65;5.82;;;;;;;19.54;86.67;93580.84;515062;28;1034;-43
2023/08/25 01:03:06;;;;;;;5.67;5.10;;;;;;;19.54;86.61;93580.13;515022;28;1914;-44
2023/08/25 01:03:22;;;;;;;5.73;5.03;;;;;;;19.54;86.70;93578.06;515774;28;1307;-44
2023/08/25 01:03:38;;;;;;;6.68;5.57;;;;;;;19.54;86.81;93580.13;516077;28;829;-44
2023/08/25 01:03:56;;;;;;;5.80;5.20;;;;;;;19.53;86.82;93579.38;515974;28;878;-43
2023/08/25 01:04:12;;;;;;;7.20;5.05;;;;;;;19.53;87.07;93576.56;516091;28;805;-44
2023/08/25 01:04:27;;;;;;;6.88;4.97;;;;;;;19.52;87.23;93575.13;515661;28;942;-44
2023/08/25 01:04:43;;;;;;;7.20;4.90;;;;;;;19.55;87.16;93581.59;515879;28;1225;-43
2023/08/25 01:04:58;;;;;;;7.73;4.90;;;;;;;19.52;87.23;93577.94;516051;28;862;-43
2023/08/25 01:05:16;;;;;;;6.00;4.73;;;;;;;19.53;87.31;93584.28;514563;28;1720;-43
2023/08/25 01:05:31;;;;;;;5.78;5.15;;;;;;;19.50;87.31;93583.41;514172;28;875;-44
2023/08/25 01:05:48;;;;;;;6.07;5.33;;;;;;;19.49;87.39;93595.22;513198;28;891;-44
2023/08/25 01:06:04;;;;;;;5.63;5.05;;;;;;;19.49;87.31;93584.03;512359;28;1727;-43
2023/08/25 01:06:19;;;;;;;5.47;4.97;;;;;;;19.47;87.28;93586.66;513856;28;1052;-43
2023/08/25 01:06:34;;;;;;;5.43;4.93;;;;;;;19.47;87.17;93587.41;514006;28;1112;-43
2023/08/25 01:06:50;;;;;;;5.20;4.80;;;;;;;19.47;86.96;93587.41;514086;28;817;-43
2023/08/25 01:07:05;;;;;;;5.55;5.05;;;;;;;19.47;86.74;93592.25;513976;28;1135;-43
2023/08/25 01:07:20;;;;;;;5.93;5.40;;;;;;;19.48;86.62;93594.47;513163;28;1297;-43
2023/08/25 01:07:36;;;;;;;5.83;5.33;;;;;;;19.48;86.56;93588.88;512605;28;1077;-43
2023/08/25 01:07:51;;;;;;;5.47;4.97;;;;;;;19.48;86.77;93594.47;513984;28;864;-44
2023/08/25 01:08:07;;;;;;;5.65;5.07;;;;;;;19.49;86.88;93584.03;514052;28;880;-43
2023/08/25 01:08:24;;;;;;;5.97;5.18;;;;;;;19.49;86.86;93589.63;513530;28;1624;-44
2023/08/25 01:08:39;;;;;;;5.95;5.28;;;;;;;19.48;86.99;93591.69;513760;28;884;-43
2023/08/25 01:08:55;;;;;;;5.75;5.18;;;;;;;19.49;87.01;93586.81;512550;28;1556;-43
2023/08/25 01:09:10;;;;;;;5.80;5.03;;;;;;;19.50;86.85;93591.06;514077;28;1221;-44
2023/08/25 01:09:26;;;;;;;5.82;4.93;;;;;;;19.49;86.92;93589.63;514074;28;864;-44
2023/08/25 01:09:42;;;;;;;4.90;4.50;;;;;;;19.49;86.76;93584.72;514120;28;898;-43
2023/08/25 01:09:57;;;;;;;5.35;4.85;;;;;;;19.51;86.91;93589.75;514143;28;928;-44
2023/08/25 01:10:13;;;;;;;5.47;4.97;;;;;;;19.51;86.81;93589.75;513912;28;958;-44
2023/08/25 01:10:50;;;;;;;5.13;4.72;;;;;;;19.49;86.79;93586.81;514008;28;1531;-43
2023/08/25 01:11:21;;;;;;;5.22;4.72;;;;;;;19.51;86.83;93584.16;513068;28;1562;-44
2023/08/25 01:11:45;;;;;;;5.53;5.03;;;;;;;19.51;86.67;93586.94;510645;29;829;-44
2023/08/25 01:12:08;;;;;;;5.38;4.88;;;;;;;19.50;86.45;93589.00;511971;28;869;-44
2023/08/25 01:12:58;;;;;;;5.25;4.82;;;;;;;19.50;86.30;93588.28;511509;29;829;-44
2023/08/25 01:13:25;;;;;;;5.20;4.70;;;;;;;19.50;86.07;93586.22;508510;29;1959;-45
2023/08/25 01:14:04;;;;;;;5.60;5.05;;;;;;;19.50;86.02;93591.81;511972;28;1128;-43
2023/08/25 01:14:30;;;;;;;5.25;4.75;;;;;;;19.49;86.14;93587.53;513490;28;884;-43
2023/08/25 01:15:04;;;;;;;5.80;5.28;;;;;;;19.49;86.05;93581.22;513980;28;934;-43
2023/08/25 01:15:28;;;;;;;5.25;4.75;;;;;;;19.50;86.24;93585.47;515839;28;1014;-44
2023/08/25 01:15:45;;;;;;;5.85;4.72;;;;;;;19.51;86.23;93592.53;513893;28;897;-43
2023/08/25 01:16:02;;;;;;;5.32;4.72;;;;;;;19.51;86.25;93586.94;512467;28;830;-44
2023/08/25 01:16:21;;;;;;;5.60;5.10;;;;;;;19.51;86.25;93582.06;511631;28;857;-43
2023/08/25 01:16:42;;;;;;;6.82;5.22;;;;;;;19.50;85.96;93586.22;507990;29;1176;-43
2023/08/25 01:17:22;;;;;;;5.45;4.95;;;;;;;19.50;85.74;93596.66;508118;28;814;-43
2023/08/25 01:17:58;;;;;;;5.30;4.80;;;;;;;19.49;85.65;93590.31;506147;28;822;-43
2023/08/25 01:18:31;;;;;;;5.43;4.93;;;;;;;19.48;85.40;93588.16;512484;28;1804;-42
2023/08/25 01:18:46;;;;;;;8.57;4.95;;;;;;;19.46;85.38;93585.94;513815;28;1619;-43
2023/08/25 01:19:04;;;;;;;6.83;5.10;;;;;;;19.47;85.31;93590.19;513950;28;824;-43
2023/08/25 01:19:39;;;;;;;5.85;5.18;;;;;;;19.47;85.30;93587.41;513949;28;870;-43
2023/08/25 01:20:01;;;;;;;5.85;5.10;;;;;;;19.47;85.25;93593.00;509890;29;963;-43
2023/08/25 01:20:17;;;;;;;6.20;5.57;;;;;;;19.47;85.35;93590.19;512937;28;1062;-43
2023/08/25 01:20:32;;;;;;;5.95;5.35;;;;;;;19.48;85.13;93593.75;513982;28;894;-43
2023/08/25 01:20:48;;;;;;;5.38;4.88;;;;;;;19.48;85.36;93594.47;513692;28;1719;-43